createdAt,value
2023-05-24T00:10:40.537Z,8.91
2023-05-24T00:21:21.434Z,8.67
2023-05-24T00:32:02.308Z,8.51
2023-05-24T00:42:42.941Z,8.35
2023-05-24T00:53:23.284Z,8.22
2023-05-24T01:04:05.574Z,8.14
2023-05-24T01:14:49.134Z,7.82
2023-05-24T01:25:50.940Z,7.93
2023-05-24T01:36:31.442Z,7.73
2023-05-24T01:47:20.718Z,7.92
2023-05-24T01:58:04.467Z,7.29
2023-05-24T02:08:44.957Z,7.37
2023-05-24T02:19:25.854Z,7.29
2023-05-24T02:30:07.589Z,7.27
2023-05-24T02:40:48.120Z,7.17
2023-05-24T02:51:28.674Z,7.08
2023-05-24T03:02:09.404Z,7.13
2023-05-24T03:12:49.872Z,7.10
2023-05-24T03:23:30.891Z,7.03
2023-05-24T03:34:11.450Z,6.98
2023-05-24T03:44:51.977Z,6.80
2023-05-24T03:55:32.673Z,6.95
2023-05-24T04:06:16.204Z,6.96
2023-05-24T04:16:59.159Z,7.02
2023-05-24T04:27:39.882Z,7.33
2023-05-24T04:38:21.972Z,7.46
2023-05-24T04:49:02.682Z,7.83
2023-05-24T04:59:43.852Z,8.28
2023-05-24T05:10:24.264Z,8.65
2023-05-24T05:21:04.754Z,8.98
2023-05-24T05:31:46.124Z,9.31
2023-05-24T05:42:26.458Z,9.77
2023-05-24T05:53:07.075Z,10.28
2023-05-24T06:03:47.792Z,10.88
2023-05-24T06:14:28.760Z,11.51
2023-05-24T06:25:09.443Z,12.03
2023-05-24T06:35:49.621Z,12.34
2023-05-24T06:46:30.714Z,12.97
2023-05-24T06:57:11.368Z,13.42
2023-05-24T07:07:52.195Z,13.56
2023-05-24T07:18:33.043Z,13.44
2023-05-24T07:29:13.373Z,13.74
2023-05-24T07:39:53.880Z,13.87
2023-05-24T07:50:36.218Z,14.44
2023-05-24T08:01:18.614Z,14.42
2023-05-24T08:11:59.178Z,14.64
2023-05-24T08:22:39.440Z,14.82
2023-05-24T08:33:19.805Z,14.78
2023-05-24T08:44:03.751Z,14.84
2023-05-24T08:54:44.891Z,14.96
2023-05-24T09:05:25.824Z,15.07
2023-05-24T09:16:06.764Z,15.10
2023-05-24T09:26:50.866Z,15.10
2023-05-24T09:37:33.062Z,15.20
2023-05-24T09:48:15.554Z,15.56
2023-05-24T09:58:57.047Z,15.65
2023-05-24T10:09:38.240Z,15.66
2023-05-24T10:20:19.187Z,15.63
2023-05-24T10:31:12.260Z,15.62
2023-05-24T10:41:56.806Z,15.83
2023-05-24T10:52:37.548Z,15.92
2023-05-24T11:03:23.536Z,15.66
2023-05-24T11:14:06.053Z,15.39
2023-05-24T11:24:47.449Z,15.30
2023-05-24T11:35:28.310Z,15.48
2023-05-24T11:46:08.902Z,15.42
2023-05-24T11:56:49.634Z,15.48
2023-05-24T12:07:30.080Z,15.95
2023-05-24T12:18:20.973Z,16.08
2023-05-24T12:29:03.697Z,16.03
2023-05-24T12:39:45.143Z,16.25
2023-05-24T12:50:26.896Z,16.34
2023-05-24T13:01:07.755Z,16.41
2023-05-24T13:11:48.709Z,16.68
2023-05-24T13:22:29.277Z,16.65
2023-05-24T13:33:09.868Z,16.62
2023-05-24T13:43:50.740Z,16.91
2023-05-24T13:54:32.232Z,17.02
2023-05-24T14:15:56.218Z,17.13
2023-05-24T14:26:36.955Z,17.01
2023-05-24T14:37:18.444Z,17.04
2023-05-24T14:48:01.014Z,16.54
2023-05-24T14:58:42.195Z,16.83
2023-05-24T15:09:22.889Z,17.06
2023-05-24T15:20:04.397Z,17.19
2023-05-24T15:30:46.861Z,17.44
2023-05-24T15:41:28.301Z,17.38
2023-05-24T15:52:10.047Z,17.24
2023-05-24T16:02:51.077Z,17.22
2023-05-24T16:13:32.395Z,17.21
2023-05-24T16:24:13.075Z,17.25
2023-05-24T16:34:56.722Z,17.25
2023-05-24T16:45:37.625Z,17.24
2023-05-24T16:56:18.277Z,17.17
2023-05-24T17:06:58.598Z,17.10
2023-05-24T17:17:39.278Z,16.91
2023-05-24T17:28:19.777Z,16.80
2023-05-24T17:39:00.324Z,16.93
2023-05-24T17:49:40.647Z,17.02
2023-05-24T18:00:21.631Z,16.75
2023-05-24T18:11:07.941Z,16.67
2023-05-24T18:21:49.003Z,16.75
2023-05-24T18:32:29.995Z,16.47
2023-05-24T18:43:10.866Z,16.71
2023-05-24T18:53:51.887Z,16.60
2023-05-24T19:04:32.709Z,16.24
2023-05-24T19:15:13.703Z,16.08
2023-05-24T19:25:54.475Z,16.05
2023-05-24T19:36:35.838Z,15.81
2023-05-24T19:47:16.762Z,15.83
2023-05-24T19:57:57.498Z,15.78
2023-05-24T20:08:38.048Z,15.47
2023-05-24T20:19:21.492Z,15.04
2023-05-24T20:30:02.586Z,15.18
2023-05-24T20:40:43.094Z,14.49
2023-05-24T20:51:24.579Z,14.70
2023-05-24T21:02:05.209Z,14.79
2023-05-24T21:12:46.682Z,14.71
2023-05-24T21:23:27.204Z,14.42
2023-05-24T21:34:07.930Z,14.29
2023-05-24T21:44:48.108Z,14.03
2023-05-24T21:55:29.437Z,13.85
2023-05-24T22:06:10.126Z,13.62
2023-05-24T22:16:50.839Z,13.63
2023-05-24T22:27:31.692Z,13.40
2023-05-24T22:38:12.690Z,13.16
2023-05-24T22:48:53.219Z,12.89
2023-05-24T22:59:33.439Z,12.70
2023-05-24T23:10:14.018Z,12.33
2023-05-24T23:20:55.996Z,12.33
2023-05-24T23:31:36.455Z,12.38
2023-05-24T23:42:17.103Z,12.16
2023-05-24T23:52:57.331Z,11.95
